sensor_id;sensor_type;location;lat;lon;timestamp;P1;durP1;ratioP1;P2;durP2;ratioP2
25391;SDS011;13329;48.402;11.718;2024-03-17T00:02:20;7.70;;;2.75;;
25391;SDS011;13329;48.402;11.718;2024-03-17T00:04:46;3.97;;;2.38;;
25391;SDS011;13329;48.402;11.718;2024-03-17T00:07:12;4.00;;;2.38;;
25391;SDS011;13329;48.402;11.718;2024-03-17T00:09:38;5.07;;;2.05;;
25391;SDS011;13329;48.402;11.718;2024-03-17T00:12:03;7.97;;;2.42;;
25391;SDS011;13329;48.402;11.718;2024-03-17T00:14:29;3.30;;;1.90;;
25391;SDS011;13329;48.402;11.718;2024-03-17T00:16:54;4.50;;;2.35;;
25391;SDS011;13329;48.402;11.718;2024-03-17T00:19:20;11.90;;;2.45;;
25391;SDS011;13329;48.402;11.718;2024-03-17T00:21:47;5.47;;;2.40;;
25391;SDS011;13329;48.402;11.718;2024-03-17T00:24:13;2.83;;;2.05;;
25391;SDS011;13329;48.402;11.718;2024-03-17T00:26:38;3.50;;;1.90;;
25391;SDS011;13329;48.402;11.718;2024-03-17T00:29:04;4.30;;;2.38;;
25391;SDS011;13329;48.402;11.718;2024-03-17T00:31:29;3.33;;;1.95;;
25391;SDS011;13329;48.402;11.718;2024-03-17T00:33:54;3.83;;;2.08;;
25391;SDS011;13329;48.402;11.718;2024-03-17T00:36:20;4.68;;;2.28;;
25391;SDS011;13329;48.402;11.718;2024-03-17T00:38:45;4.28;;;2.95;;
25391;SDS011;13329;48.402;11.718;2024-03-17T00:41:11;6.32;;;2.35;;
25391;SDS011;13329;48.402;11.718;2024-03-17T00:43:36;6.03;;;2.38;;
25391;SDS011;13329;48.402;11.718;2024-03-17T00:46:02;3.95;;;2.22;;
25391;SDS011;13329;48.402;11.718;2024-03-17T00:48:28;5.47;;;2.13;;
25391;SDS011;13329;48.402;11.718;2024-03-17T00:50:56;5.00;;;2.65;;
25391;SDS011;13329;48.402;11.718;2024-03-17T00:53:22;3.30;;;2.33;;
25391;SDS011;13329;48.402;11.718;2024-03-17T00:55:51;3.38;;;2.10;;
25391;SDS011;13329;48.402;11.718;2024-03-17T00:58:23;2.53;;;1.92;;
25391;SDS011;13329;48.402;11.718;2024-03-17T01:00:48;3.72;;;2.08;;
25391;SDS011;13329;48.402;11.718;2024-03-17T01:03:14;4.20;;;2.63;;
25391;SDS011;13329;48.402;11.718;2024-03-17T01:05:40;4.38;;;2.45;;
25391;SDS011;13329;48.402;11.718;2024-03-17T01:08:08;8.07;;;2.75;;
25391;SDS011;13329;48.402;11.718;2024-03-17T01:10:36;4.68;;;2.25;;
25391;SDS011;13329;48.402;11.718;2024-03-17T01:13:03;5.80;;;2.63;;
25391;SDS011;13329;48.402;11.718;2024-03-17T01:15:30;3.40;;;1.98;;
25391;SDS011;13329;48.402;11.718;2024-03-17T01:17:55;3.20;;;1.83;;
25391;SDS011;13329;48.402;11.718;2024-03-17T01:20:21;4.20;;;2.50;;
25391;SDS011;13329;48.402;11.718;2024-03-17T01:22:46;11.38;;;2.33;;
25391;SDS011;13329;48.402;11.718;2024-03-17T01:25:11;4.32;;;2.30;;
25391;SDS011;13329;48.402;11.718;2024-03-17T01:27:37;4.75;;;2.47;;
25391;SDS011;13329;48.402;11.718;2024-03-17T01:30:02;2.88;;;1.88;;
25391;SDS011;13329;48.402;11.718;2024-03-17T01:32:28;2.33;;;1.88;;
25391;SDS011;13329;48.402;11.718;2024-03-17T01:34:53;2.90;;;1.85;;
25391;SDS011;13329;48.402;11.718;2024-03-17T01:37:19;2.97;;;2.40;;
25391;SDS011;13329;48.402;11.718;2024-03-17T01:39:44;5.22;;;2.10;;
25391;SDS011;13329;48.402;11.718;2024-03-17T01:42:09;4.20;;;2.13;;
25391;SDS011;13329;48.402;11.718;2024-03-17T01:44:34;3.28;;;2.10;;
25391;SDS011;13329;48.402;11.718;2024-03-17T01:47:00;3.63;;;2.33;;
25391;SDS011;13329;48.402;11.718;2024-03-17T01:49:25;3.15;;;1.70;;
25391;SDS011;13329;48.402;11.718;2024-03-17T01:51:51;3.17;;;2.05;;
25391;SDS011;13329;48.402;11.718;2024-03-17T01:54:18;3.33;;;2.13;;
25391;SDS011;13329;48.402;11.718;2024-03-17T01:56:43;10.93;;;2.40;;
25391;SDS011;13329;48.402;11.718;2024-03-17T01:59:10;4.68;;;2.80;;
25391;SDS011;13329;48.402;11.718;2024-03-17T02:01:36;4.05;;;1.98;;
25391;SDS011;13329;48.402;11.718;2024-03-17T02:04:02;3.78;;;2.35;;
25391;SDS011;13329;48.402;11.718;2024-03-17T02:06:28;4.78;;;2.47;;
25391;SDS011;13329;48.402;11.718;2024-03-17T02:08:54;4.05;;;2.22;;
25391;SDS011;13329;48.402;11.718;2024-03-17T02:11:29;4.55;;;2.35;;
25391;SDS011;13329;48.402;11.718;2024-03-17T02:13:56;2.20;;;1.80;;
25391;SDS011;13329;48.402;11.718;2024-03-17T02:16:22;3.42;;;1.80;;
25391;SDS011;13329;48.402;11.718;2024-03-17T02:18:48;3.97;;;1.67;;
25391;SDS011;13329;48.402;11.718;2024-03-17T02:21:14;2.80;;;2.03;;
25391;SDS011;13329;48.402;11.718;2024-03-17T02:23:43;2.72;;;1.73;;
25391;SDS011;13329;48.402;11.718;2024-03-17T02:26:09;2.45;;;1.92;;
25391;SDS011;13329;48.402;11.718;2024-03-17T02:28:41;4.05;;;1.80;;
25391;SDS011;13329;48.402;11.718;2024-03-17T02:31:07;3.00;;;1.80;;
25391;SDS011;13329;48.402;11.718;2024-03-17T02:33:34;3.50;;;2.10;;
25391;SDS011;13329;48.402;11.718;2024-03-17T02:36:00;7.07;;;2.50;;
25391;SDS011;13329;48.402;11.718;2024-03-17T02:38:26;4.57;;;2.33;;
25391;SDS011;13329;48.402;11.718;2024-03-17T02:41:10;7.68;;;2.28;;
25391;SDS011;13329;48.402;11.718;2024-03-17T02:43:35;5.03;;;2.78;;
25391;SDS011;13329;48.402;11.718;2024-03-17T02:46:01;3.15;;;1.77;;
25391;SDS011;13329;48.402;11.718;2024-03-17T02:48:29;4.22;;;2.35;;
25391;SDS011;13329;48.402;11.718;2024-03-17T02:50:55;3.28;;;1.80;;
25391;SDS011;13329;48.402;11.718;2024-03-17T02:53:21;5.25;;;2.33;;
25391;SDS011;13329;48.402;11.718;2024-03-17T02:55:46;5.50;;;2.03;;
25391;SDS011;13329;48.402;11.718;2024-03-17T02:58:12;4.10;;;2.50;;
25391;SDS011;13329;48.402;11.718;2024-03-17T03:00:37;1.95;;;1.67;;
25391;SDS011;13329;48.402;11.718;2024-03-17T03:03:03;3.97;;;1.85;;
25391;SDS011;13329;48.402;11.718;2024-03-17T03:05:29;4.47;;;2.40;;
25391;SDS011;13329;48.402;11.718;2024-03-17T03:07:55;2.40;;;1.80;;
25391;SDS011;13329;48.402;11.718;2024-03-17T03:10:20;2.95;;;2.10;;
25391;SDS011;13329;48.402;11.718;2024-03-17T03:12:46;3.60;;;2.22;;
25391;SDS011;13329;48.402;11.718;2024-03-17T03:15:11;3.25;;;2.40;;
25391;SDS011;13329;48.402;11.718;2024-03-17T03:17:36;1.90;;;1.42;;
25391;SDS011;13329;48.402;11.718;2024-03-17T03:20:02;3.05;;;2.00;;
25391;SDS011;13329;48.402;11.718;2024-03-17T03:22:28;2.45;;;1.60;;
25391;SDS011;13329;48.402;11.718;2024-03-17T03:24:53;1.98;;;1.40;;
25391;SDS011;13329;48.402;11.718;2024-03-17T03:27:19;3.55;;;1.92;;
25391;SDS011;13329;48.402;11.718;2024-03-17T03:29:44;3.78;;;1.70;;
25391;SDS011;13329;48.402;11.718;2024-03-17T03:32:09;4.85;;;2.22;;
25391;SDS011;13329;48.402;11.718;2024-03-17T03:34:34;4.22;;;1.85;;
25391;SDS011;13329;48.402;11.718;2024-03-17T03:37:00;12.38;;;2.22;;
25391;SDS011;13329;48.402;11.718;2024-03-17T03:39:25;3.10;;;2.33;;
25391;SDS011;13329;48.402;11.718;2024-03-17T03:41:56;3.10;;;1.80;;
25391;SDS011;13329;48.402;11.718;2024-03-17T03:44:21;2.85;;;1.80;;
25391;SDS011;13329;48.402;11.718;2024-03-17T03:46:47;3.90;;;2.40;;
25391;SDS011;13329;48.402;11.718;2024-03-17T03:49:12;3.05;;;1.42;;
25391;SDS011;13329;48.402;11.718;2024-03-17T03:51:38;3.72;;;2.13;;
25391;SDS011;13329;48.402;11.718;2024-03-17T03:54:04;3.65;;;2.35;;
25391;SDS011;13329;48.402;11.718;2024-03-17T03:56:31;4.47;;;2.20;;
25391;SDS011;13329;48.402;11.718;2024-03-17T03:58:57;9.02;;;2.65;;
25391;SDS011;13329;48.402;11.718;2024-03-17T04:01:22;2.35;;;1.85;;
25391;SDS011;13329;48.402;11.718;2024-03-17T04:03:47;3.40;;;2.17;;
25391;SDS011;13329;48.402;11.718;2024-03-17T04:06:14;4.20;;;2.40;;
25391;SDS011;13329;48.402;11.718;2024-03-17T04:08:41;3.65;;;2.35;;
25391;SDS011;13329;48.402;11.718;2024-03-17T04:11:06;3.65;;;2.35;;
25391;SDS011;13329;48.402;11.718;2024-03-17T04:13:32;4.85;;;2.22;;
25391;SDS011;13329;48.402;11.718;2024-03-17T04:15:58;3.33;;;2.53;;
25391;SDS011;13329;48.402;11.718;2024-03-17T04:18:24;4.15;;;2.55;;
25391;SDS011;13329;48.402;11.718;2024-03-17T04:20:54;7.90;;;3.10;;
25391;SDS011;13329;48.402;11.718;2024-03-17T04:23:20;3.92;;;2.28;;
25391;SDS011;13329;48.402;11.718;2024-03-17T04:25:46;5.10;;;2.15;;
25391;SDS011;13329;48.402;11.718;2024-03-17T04:28:13;2.85;;;1.55;;
25391;SDS011;13329;48.402;11.718;2024-03-17T04:30:39;2.75;;;2.03;;
25391;SDS011;13329;48.402;11.718;2024-03-17T04:33:04;3.13;;;1.70;;
25391;SDS011;13329;48.402;11.718;2024-03-17T04:35:31;4.30;;;2.28;;
25391;SDS011;13329;48.402;11.718;2024-03-17T04:38:00;4.28;;;2.15;;
25391;SDS011;13329;48.402;11.718;2024-03-17T04:40:25;4.20;;;2.00;;
25391;SDS011;13329;48.402;11.718;2024-03-17T04:42:51;3.03;;;2.20;;
25391;SDS011;13329;48.402;11.718;2024-03-17T04:45:16;5.47;;;2.65;;
25391;SDS011;13329;48.402;11.718;2024-03-17T04:47:41;2.50;;;1.75;;
25391;SDS011;13329;48.402;11.718;2024-03-17T04:50:06;3.00;;;2.10;;
25391;SDS011;13329;48.402;11.718;2024-03-17T04:52:34;3.22;;;1.98;;
25391;SDS011;13329;48.402;11.718;2024-03-17T04:54:59;2.50;;;1.90;;
25391;SDS011;13329;48.402;11.718;2024-03-17T04:57:25;5.22;;;2.42;;
25391;SDS011;13329;48.402;11.718;2024-03-17T04:59:50;3.75;;;2.35;;
25391;SDS011;13329;48.402;11.718;2024-03-17T05:02:15;4.50;;;1.90;;
25391;SDS011;13329;48.402;11.718;2024-03-17T05:04:41;4.15;;;2.38;;
25391;SDS011;13329;48.402;11.718;2024-03-17T05:07:07;3.78;;;2.63;;
25391;SDS011;13329;48.402;11.718;2024-03-17T05:09:34;4.30;;;2.78;;
25391;SDS011;13329;48.402;11.718;2024-03-17T05:11:59;6.47;;;2.25;;
25391;SDS011;13329;48.402;11.718;2024-03-17T05:14:24;3.60;;;2.10;;
25391;SDS011;13329;48.402;11.718;2024-03-17T05:16:51;4.00;;;2.33;;
25391;SDS011;13329;48.402;11.718;2024-03-17T05:19:16;3.13;;;2.30;;
25391;SDS011;13329;48.402;11.718;2024-03-17T05:21:45;3.33;;;2.20;;
25391;SDS011;13329;48.402;11.718;2024-03-17T05:24:11;3.65;;;2.20;;
25391;SDS011;13329;48.402;11.718;2024-03-17T05:26:37;5.32;;;2.45;;
25391;SDS011;13329;48.402;11.718;2024-03-17T05:29:02;4.00;;;2.30;;
25391;SDS011;13329;48.402;11.718;2024-03-17T05:31:28;6.18;;;1.98;;
25391;SDS011;13329;48.402;11.718;2024-03-17T05:33:54;3.67;;;2.42;;
25391;SDS011;13329;48.402;11.718;2024-03-17T05:36:20;3.00;;;1.80;;
25391;SDS011;13329;48.402;11.718;2024-03-17T05:38:46;3.30;;;2.08;;
25391;SDS011;13329;48.402;11.718;2024-03-17T05:41:12;2.78;;;1.98;;
25391;SDS011;13329;48.402;11.718;2024-03-17T05:43:38;1.83;;;1.50;;
25391;SDS011;13329;48.402;11.718;2024-03-17T05:46:12;4.55;;;1.98;;
25391;SDS011;13329;48.402;11.718;2024-03-17T05:48:40;5.80;;;2.42;;
25391;SDS011;13329;48.402;11.718;2024-03-17T05:51:07;3.97;;;1.80;;
25391;SDS011;13329;48.402;11.718;2024-03-17T05:53:33;3.75;;;2.38;;
25391;SDS011;13329;48.402;11.718;2024-03-17T05:55:59;4.50;;;2.25;;
25391;SDS011;13329;48.402;11.718;2024-03-17T05:58:26;6.13;;;2.38;;
25391;SDS011;13329;48.402;11.718;2024-03-17T06:00:51;4.18;;;2.40;;
25391;SDS011;13329;48.402;11.718;2024-03-17T06:03:16;2.90;;;1.77;;
25391;SDS011;13329;48.402;11.718;2024-03-17T06:05:43;5.63;;;2.38;;
25391;SDS011;13329;48.402;11.718;2024-03-17T06:08:10;9.15;;;2.28;;
25391;SDS011;13329;48.402;11.718;2024-03-17T06:10:36;3.13;;;2.58;;
25391;SDS011;13329;48.402;11.718;2024-03-17T06:13:03;2.92;;;1.90;;
25391;SDS011;13329;48.402;11.718;2024-03-17T06:15:29;4.38;;;2.45;;
25391;SDS011;13329;48.402;11.718;2024-03-17T06:17:54;6.82;;;2.60;;
25391;SDS011;13329;48.402;11.718;2024-03-17T06:20:20;4.78;;;2.63;;
25391;SDS011;13329;48.402;11.718;2024-03-17T06:22:47;4.40;;;2.90;;
25391;SDS011;13329;48.402;11.718;2024-03-17T06:25:12;3.92;;;2.67;;
25391;SDS011;13329;48.402;11.718;2024-03-17T06:27:38;4.57;;;2.72;;
25391;SDS011;13329;48.402;11.718;2024-03-17T06:30:03;5.43;;;3.15;;
25391;SDS011;13329;48.402;11.718;2024-03-17T06:32:29;4.00;;;2.42;;
25391;SDS011;13329;48.402;11.718;2024-03-17T06:34:56;5.93;;;2.47;;
25391;SDS011;13329;48.402;11.718;2024-03-17T06:37:22;4.90;;;2.40;;
25391;SDS011;13329;48.402;11.718;2024-03-17T06:39:48;4.13;;;2.80;;
25391;SDS011;13329;48.402;11.718;2024-03-17T06:42:13;4.75;;;2.08;;
25391;SDS011;13329;48.402;11.718;2024-03-17T06:44:39;6.90;;;3.22;;
25391;SDS011;13329;48.402;11.718;2024-03-17T06:47:04;7.07;;;3.63;;
25391;SDS011;13329;48.402;11.718;2024-03-17T06:49:30;7.13;;;4.57;;
25391;SDS011;13329;48.402;11.718;2024-03-17T06:51:55;6.47;;;4.32;;
25391;SDS011;13329;48.402;11.718;2024-03-17T06:54:21;8.77;;;4.38;;
25391;SDS011;13329;48.402;11.718;2024-03-17T06:56:47;7.20;;;4.72;;
25391;SDS011;13329;48.402;11.718;2024-03-17T06:59:12;8.18;;;4.72;;
25391;SDS011;13329;48.402;11.718;2024-03-17T07:01:37;9.20;;;4.57;;
25391;SDS011;13329;48.402;11.718;2024-03-17T07:04:03;13.90;;;5.20;;
25391;SDS011;13329;48.402;11.718;2024-03-17T07:06:28;10.48;;;5.32;;
25391;SDS011;13329;48.402;11.718;2024-03-17T07:08:54;12.38;;;5.28;;
25391;SDS011;13329;48.402;11.718;2024-03-17T07:11:20;6.45;;;4.22;;
25391;SDS011;13329;48.402;11.718;2024-03-17T07:13:48;8.75;;;4.82;;
25391;SDS011;13329;48.402;11.718;2024-03-17T07:16:16;9.38;;;3.72;;
25391;SDS011;13329;48.402;11.718;2024-03-17T07:18:41;13.57;;;4.55;;
25391;SDS011;13329;48.402;11.718;2024-03-17T07:21:08;8.43;;;3.88;;
25391;SDS011;13329;48.402;11.718;2024-03-17T07:23:35;9.85;;;3.67;;
25391;SDS011;13329;48.402;11.718;2024-03-17T07:26:01;6.40;;;3.97;;
25391;SDS011;13329;48.402;11.718;2024-03-17T07:28:27;7.97;;;4.03;;
25391;SDS011;13329;48.402;11.718;2024-03-17T07:30:56;23.98;;;4.28;;
25391;SDS011;13329;48.402;11.718;2024-03-17T07:33:22;6.68;;;4.35;;
25391;SDS011;13329;48.402;11.718;2024-03-17T07:35:52;9.35;;;4.15;;
25391;SDS011;13329;48.402;11.718;2024-03-17T07:38:19;7.50;;;4.22;;
25391;SDS011;13329;48.402;11.718;2024-03-17T07:40:54;8.38;;;4.00;;
25391;SDS011;13329;48.402;11.718;2024-03-17T07:43:22;8.85;;;4.55;;
25391;SDS011;13329;48.402;11.718;2024-03-17T07:45:48;9.05;;;4.40;;
25391;SDS011;13329;48.402;11.718;2024-03-17T07:51:01;7.57;;;4.38;;
25391;SDS011;13329;48.402;11.718;2024-03-17T07:53:31;8.88;;;5.05;;
25391;SDS011;13329;48.402;11.718;2024-03-17T07:56:07;11.75;;;4.32;;
25391;SDS011;13329;48.402;11.718;2024-03-17T07:58:34;5.63;;;3.70;;
25391;SDS011;13329;48.402;11.718;2024-03-17T08:01:01;8.30;;;4.40;;
25391;SDS011;13329;48.402;11.718;2024-03-17T08:03:44;7.65;;;4.18;;
25391;SDS011;13329;48.402;11.718;2024-03-17T08:06:11;7.80;;;3.67;;
25391;SDS011;13329;48.402;11.718;2024-03-17T08:08:37;7.68;;;4.03;;
25391;SDS011;13329;48.402;11.718;2024-03-17T08:11:02;6.68;;;4.05;;
25391;SDS011;13329;48.402;11.718;2024-03-17T08:13:28;9.82;;;4.40;;
25391;SDS011;13329;48.402;11.718;2024-03-17T08:15:59;9.38;;;3.75;;
25391;SDS011;13329;48.402;11.718;2024-03-17T08:18:25;8.60;;;4.60;;
25391;SDS011;13329;48.402;11.718;2024-03-17T08:20:52;8.68;;;4.18;;
25391;SDS011;13329;48.402;11.718;2024-03-17T08:23:18;6.85;;;4.10;;
25391;SDS011;13329;48.402;11.718;2024-03-17T08:25:51;5.93;;;3.83;;
25391;SDS011;13329;48.402;11.718;2024-03-17T08:28:17;8.68;;;4.43;;
25391;SDS011;13329;48.402;11.718;2024-03-17T08:30:42;6.32;;;3.72;;
25391;SDS011;13329;48.402;11.718;2024-03-17T08:33:08;6.40;;;4.10;;
25391;SDS011;13329;48.402;11.718;2024-03-17T08:35:34;6.70;;;4.03;;
25391;SDS011;13329;48.402;11.718;2024-03-17T08:38:02;6.18;;;3.90;;
25391;SDS011;13329;48.402;11.718;2024-03-17T08:40:27;9.23;;;4.10;;
25391;SDS011;13329;48.402;11.718;2024-03-17T08:42:53;9.50;;;4.07;;
25391;SDS011;13329;48.402;11.718;2024-03-17T08:45:18;5.70;;;3.58;;
25391;SDS011;13329;48.402;11.718;2024-03-17T08:47:43;7.13;;;3.75;;
25391;SDS011;13329;48.402;11.718;2024-03-17T08:50:09;8.93;;;4.15;;
25391;SDS011;13329;48.402;11.718;2024-03-17T08:52:37;6.10;;;3.80;;
25391;SDS011;13329;48.402;11.718;2024-03-17T08:55:02;7.15;;;4.57;;
25391;SDS011;13329;48.402;11.718;2024-03-17T08:57:29;6.63;;;3.85;;
25391;SDS011;13329;48.402;11.718;2024-03-17T08:59:54;9.27;;;4.28;;
25391;SDS011;13329;48.402;11.718;2024-03-17T09:02:19;10.23;;;4.10;;
25391;SDS011;13329;48.402;11.718;2024-03-17T09:04:46;7.95;;;4.65;;
25391;SDS011;13329;48.402;11.718;2024-03-17T09:07:12;7.43;;;4.32;;
25391;SDS011;13329;48.402;11.718;2024-03-17T09:09:38;8.13;;;3.60;;
25391;SDS011;13329;48.402;11.718;2024-03-17T09:12:04;6.72;;;3.70;;
25391;SDS011;13329;48.402;11.718;2024-03-17T09:14:30;5.10;;;3.53;;
25391;SDS011;13329;48.402;11.718;2024-03-17T09:16:56;6.65;;;3.85;;
25391;SDS011;13329;48.402;11.718;2024-03-17T09:19:23;8.70;;;4.15;;
25391;SDS011;13329;48.402;11.718;2024-03-17T09:21:48;9.65;;;3.95;;
25391;SDS011;13329;48.402;11.718;2024-03-17T09:24:14;4.45;;;3.10;;
25391;SDS011;13329;48.402;11.718;2024-03-17T09:26:39;5.07;;;3.40;;
25391;SDS011;13329;48.402;11.718;2024-03-17T09:29:04;5.65;;;3.58;;
25391;SDS011;13329;48.402;11.718;2024-03-17T09:31:30;7.13;;;3.88;;
25391;SDS011;13329;48.402;11.718;2024-03-17T09:33:58;6.20;;;3.40;;
25391;SDS011;13329;48.402;11.718;2024-03-17T09:36:24;4.55;;;2.83;;
25391;SDS011;13329;48.402;11.718;2024-03-17T09:38:49;5.20;;;3.15;;
25391;SDS011;13329;48.402;11.718;2024-03-17T09:41:21;7.78;;;3.40;;
25391;SDS011;13329;48.402;11.718;2024-03-17T09:43:49;4.80;;;3.38;;
25391;SDS011;13329;48.402;11.718;2024-03-17T09:46:18;4.53;;;2.78;;
25391;SDS011;13329;48.402;11.718;2024-03-17T09:48:44;5.38;;;3.00;;
25391;SDS011;13329;48.402;11.718;2024-03-17T09:51:13;6.20;;;3.67;;
25391;SDS011;13329;48.402;11.718;2024-03-17T09:53:47;5.78;;;2.97;;
25391;SDS011;13329;48.402;11.718;2024-03-17T09:56:13;7.63;;;3.40;;
25391;SDS011;13329;48.402;11.718;2024-03-17T09:58:41;5.53;;;3.30;;
25391;SDS011;13329;48.402;11.718;2024-03-17T10:01:06;5.90;;;3.42;;
25391;SDS011;13329;48.402;11.718;2024-03-17T10:06:28;6.72;;;3.45;;
25391;SDS011;13329;48.402;11.718;2024-03-17T10:08:55;4.22;;;2.55;;
25391;SDS011;13329;48.402;11.718;2024-03-17T10:11:22;4.43;;;2.50;;
25391;SDS011;13329;48.402;11.718;2024-03-17T10:14:10;4.57;;;2.78;;
25391;SDS011;13329;48.402;11.718;2024-03-17T10:16:35;4.80;;;2.97;;
25391;SDS011;13329;48.402;11.718;2024-03-17T10:19:09;2.47;;;2.17;;
25391;SDS011;13329;48.402;11.718;2024-03-17T10:21:36;5.63;;;2.45;;
25391;SDS011;13329;48.402;11.718;2024-03-17T10:24:06;3.72;;;2.30;;
25391;SDS011;13329;48.402;11.718;2024-03-17T10:26:35;4.53;;;2.05;;
25391;SDS011;13329;48.402;11.718;2024-03-17T10:29:02;4.55;;;2.33;;
25391;SDS011;13329;48.402;11.718;2024-03-17T10:31:29;5.53;;;2.25;;
25391;SDS011;13329;48.402;11.718;2024-03-17T10:34:03;7.22;;;2.50;;
25391;SDS011;13329;48.402;11.718;2024-03-17T10:36:28;3.75;;;1.85;;
25391;SDS011;13329;48.402;11.718;2024-03-17T10:38:54;3.43;;;1.83;;
25391;SDS011;13329;48.402;11.718;2024-03-17T10:41:20;2.30;;;1.85;;
25391;SDS011;13329;48.402;11.718;2024-03-17T10:43:47;3.13;;;2.22;;
25391;SDS011;13329;48.402;11.718;2024-03-17T10:46:12;3.22;;;2.10;;
25391;SDS011;13329;48.402;11.718;2024-03-17T10:48:40;5.90;;;2.50;;
25391;SDS011;13329;48.402;11.718;2024-03-17T10:51:08;3.25;;;2.13;;
25391;SDS011;13329;48.402;11.718;2024-03-17T10:53:41;3.03;;;2.00;;
25391;SDS011;13329;48.402;11.718;2024-03-17T10:56:10;4.43;;;2.47;;
25391;SDS011;13329;48.402;11.718;2024-03-17T10:58:42;4.93;;;2.05;;
25391;SDS011;13329;48.402;11.718;2024-03-17T11:01:13;4.22;;;1.70;;
25391;SDS011;13329;48.402;11.718;2024-03-17T11:03:39;3.60;;;1.80;;
25391;SDS011;13329;48.402;11.718;2024-03-17T11:06:05;3.05;;;1.83;;
25391;SDS011;13329;48.402;11.718;2024-03-17T11:08:33;2.90;;;1.52;;
25391;SDS011;13329;48.402;11.718;2024-03-17T11:10:59;7.38;;;2.15;;
25391;SDS011;13329;48.402;11.718;2024-03-17T11:13:26;4.72;;;1.77;;
25391;SDS011;13329;48.402;11.718;2024-03-17T11:15:53;3.40;;;2.03;;
25391;SDS011;13329;48.402;11.718;2024-03-17T11:23:35;6.35;;;1.98;;
25391;SDS011;13329;48.402;11.718;2024-03-17T11:26:03;4.55;;;1.40;;
25391;SDS011;13329;48.402;11.718;2024-03-17T11:34:03;3.45;;;1.70;;
25391;SDS011;13329;48.402;11.718;2024-03-17T11:36:33;2.63;;;1.58;;
25391;SDS011;13329;48.402;11.718;2024-03-17T11:39:08;1.90;;;1.45;;
25391;SDS011;13329;48.402;11.718;2024-03-17T11:41:40;2.90;;;1.60;;
25391;SDS011;13329;48.402;11.718;2024-03-17T11:44:14;2.78;;;1.25;;
25391;SDS011;13329;48.402;11.718;2024-03-17T11:49:23;2.55;;;1.63;;
25391;SDS011;13329;48.402;11.718;2024-03-17T11:51:51;4.88;;;2.00;;
25391;SDS011;13329;48.402;11.718;2024-03-17T11:54:19;4.07;;;1.88;;
25391;SDS011;13329;48.402;11.718;2024-03-17T11:56:47;3.00;;;1.58;;
25391;SDS011;13329;48.402;11.718;2024-03-17T11:59:14;6.47;;;1.98;;
25391;SDS011;13329;48.402;11.718;2024-03-17T12:01:42;6.03;;;2.35;;
25391;SDS011;13329;48.402;11.718;2024-03-17T12:04:08;5.03;;;2.13;;
25391;SDS011;13329;48.402;11.718;2024-03-17T12:06:34;2.83;;;2.05;;
25391;SDS011;13329;48.402;11.718;2024-03-17T12:09:11;7.10;;;2.20;;
25391;SDS011;13329;48.402;11.718;2024-03-17T12:11:47;3.72;;;2.08;;
25391;SDS011;13329;48.402;11.718;2024-03-17T12:14:24;4.80;;;1.55;;
25391;SDS011;13329;48.402;11.718;2024-03-17T12:16:57;6.40;;;1.98;;
25391;SDS011;13329;48.402;11.718;2024-03-17T12:19:24;4.05;;;2.05;;
25391;SDS011;13329;48.402;11.718;2024-03-17T12:21:51;2.75;;;2.28;;
25391;SDS011;13329;48.402;11.718;2024-03-17T12:24:19;4.10;;;1.92;;
25391;SDS011;13329;48.402;11.718;2024-03-17T12:26:46;2.70;;;1.88;;
25391;SDS011;13329;48.402;11.718;2024-03-17T12:31:55;2.80;;;1.67;;
25391;SDS011;13329;48.402;11.718;2024-03-17T12:34:21;3.80;;;1.55;;
25391;SDS011;13329;48.402;11.718;2024-03-17T12:36:49;2.42;;;1.30;;
25391;SDS011;13329;48.402;11.718;2024-03-17T12:39:22;2.42;;;1.58;;
25391;SDS011;13329;48.402;11.718;2024-03-17T12:44:30;7.88;;;3.67;;
25391;SDS011;13329;48.402;11.718;2024-03-17T12:46:57;4.10;;;1.80;;
25391;SDS011;13329;48.402;11.718;2024-03-17T12:49:25;3.45;;;1.48;;
25391;SDS011;13329;48.402;11.718;2024-03-17T12:51:51;2.65;;;1.40;;
25391;SDS011;13329;48.402;11.718;2024-03-17T12:54:21;1.95;;;1.40;;
25391;SDS011;13329;48.402;11.718;2024-03-17T12:56:49;1.98;;;1.20;;
25391;SDS011;13329;48.402;11.718;2024-03-17T12:59:40;2.78;;;1.27;;
25391;SDS011;13329;48.402;11.718;2024-03-17T13:02:42;5.15;;;1.58;;
25391;SDS011;13329;48.402;11.718;2024-03-17T13:05:15;1.63;;;1.30;;
25391;SDS011;13329;48.402;11.718;2024-03-17T13:07:41;4.22;;;1.73;;
25391;SDS011;13329;48.402;11.718;2024-03-17T13:10:07;2.53;;;1.20;;
25391;SDS011;13329;48.402;11.718;2024-03-17T13:12:36;3.92;;;0.90;;
25391;SDS011;13329;48.402;11.718;2024-03-17T13:15:01;7.22;;;1.30;;
25391;SDS011;13329;48.402;11.718;2024-03-17T13:17:27;3.03;;;1.30;;
25391;SDS011;13329;48.402;11.718;2024-03-17T13:19:54;1.80;;;1.20;;
25391;SDS011;13329;48.402;11.718;2024-03-17T13:22:19;2.03;;;1.10;;
25391;SDS011;13329;48.402;11.718;2024-03-17T13:24:45;2.60;;;1.23;;
25391;SDS011;13329;48.402;11.718;2024-03-17T13:27:10;3.83;;;1.40;;
25391;SDS011;13329;48.402;11.718;2024-03-17T13:29:35;4.00;;;1.30;;
25391;SDS011;13329;48.402;11.718;2024-03-17T13:32:02;3.67;;;1.30;;
25391;SDS011;13329;48.402;11.718;2024-03-17T13:34:28;3.15;;;1.23;;
25391;SDS011;13329;48.402;11.718;2024-03-17T13:36:54;3.53;;;1.40;;
25391;SDS011;13329;48.402;11.718;2024-03-17T13:39:19;3.08;;;1.42;;
25391;SDS011;13329;48.402;11.718;2024-03-17T13:41:47;2.38;;;1.25;;
25391;SDS011;13329;48.402;11.718;2024-03-17T13:44:14;4.38;;;1.42;;
25391;SDS011;13329;48.402;11.718;2024-03-17T13:46:39;1.98;;;0.93;;
25391;SDS011;13329;48.402;11.718;2024-03-17T13:49:07;4.35;;;1.20;;
25391;SDS011;13329;48.402;11.718;2024-03-17T13:51:36;5.07;;;1.10;;
25391;SDS011;13329;48.402;11.718;2024-03-17T13:54:01;3.58;;;1.27;;
25391;SDS011;13329;48.402;11.718;2024-03-17T13:56:27;1.70;;;1.30;;
25391;SDS011;13329;48.402;11.718;2024-03-17T13:58:53;2.30;;;1.20;;
25391;SDS011;13329;48.402;11.718;2024-03-17T14:01:18;1.27;;;0.90;;
25391;SDS011;13329;48.402;11.718;2024-03-17T14:03:44;2.28;;;0.95;;
25391;SDS011;13329;48.402;11.718;2024-03-17T14:06:10;3.95;;;1.70;;
25391;SDS011;13329;48.402;11.718;2024-03-17T14:08:36;3.88;;;1.13;;
25391;SDS011;13329;48.402;11.718;2024-03-17T14:11:01;3.47;;;1.50;;
25391;SDS011;13329;48.402;11.718;2024-03-17T14:13:26;2.38;;;1.35;;
25391;SDS011;13329;48.402;11.718;2024-03-17T14:15:55;1.90;;;1.20;;
25391;SDS011;13329;48.402;11.718;2024-03-17T14:18:20;1.83;;;1.02;;
25391;SDS011;13329;48.402;11.718;2024-03-17T14:20:46;2.63;;;1.23;;
25391;SDS011;13329;48.402;11.718;2024-03-17T14:23:11;1.63;;;1.42;;
25391;SDS011;13329;48.402;11.718;2024-03-17T14:25:37;2.75;;;1.23;;
25391;SDS011;13329;48.402;11.718;2024-03-17T14:28:03;3.83;;;1.23;;
25391;SDS011;13329;48.402;11.718;2024-03-17T14:30:29;5.53;;;1.40;;
25391;SDS011;13329;48.402;11.718;2024-03-17T14:32:55;2.30;;;1.20;;
25391;SDS011;13329;48.402;11.718;2024-03-17T14:35:21;1.20;;;0.93;;
25391;SDS011;13329;48.402;11.718;2024-03-17T14:37:47;1.35;;;1.10;;
25391;SDS011;13329;48.402;11.718;2024-03-17T14:40:13;2.50;;;1.38;;
25391;SDS011;13329;48.402;11.718;2024-03-17T14:42:46;2.67;;;1.15;;
25391;SDS011;13329;48.402;11.718;2024-03-17T14:45:12;2.05;;;1.20;;
25391;SDS011;13329;48.402;11.718;2024-03-17T14:47:38;1.38;;;1.05;;
25391;SDS011;13329;48.402;11.718;2024-03-17T14:50:04;2.38;;;0.85;;
25391;SDS011;13329;48.402;11.718;2024-03-17T14:52:30;2.08;;;1.15;;
25391;SDS011;13329;48.402;11.718;2024-03-17T14:54:55;2.90;;;1.27;;
25391;SDS011;13329;48.402;11.718;2024-03-17T14:57:21;2.25;;;1.30;;